CheckWX is a tool to help pilots better visualize weather data.  It is not intended as a substitute for an official pre-flight weather briefing.

13:16:18 UTC

EGHH TAF
Bournemouth Airport
Bournemouth, United Kingdom
TAF EGHH 191101Z 1912/1921 VRB04KT 6000 SCT030 BECMG 1912/1915 18010KT 9999

Nov-19@
12:00 UTC

Nov-19 @ 12:00 UTC

Nov-19@
21:00 UTC

Nov-19 @ 21:00 UTC

TAF EGHH 191101Z 1912/1921 VRB04KT 6000 SCT030
Wind
  • Variable at 4 KTS
Cloud Levels
  • Scattered at 3,000' AGL

Nov-19@
12:00 UTC

Nov-19 @ 12:00 UTC

Nov-19@
21:00 UTC

Nov-19 @ 21:00 UTC

BECMG 1912/1915 18010KT 9999

Becoming

Becoming Conditions expected by Tue, Nov 19, 2019 @ 15:00 UTC

Wind
  • 180° at 10 KTS
Cloud Levels
  • Scattered at 3,000' AGL